Time;durP1;ratioP1;P1;durP2;ratioP2;P2;SDS_P1;SDS_P2;PMS_P1;PMS_P2;Temp;Humidity;BMP_temperature;BMP_pressure;BME280_temperature;BME280_humidity;BME280_pressure;Samples;Min_cycle;Max_cycle;Signal;HPM_P1;HPM_P2
2022/01/12 00:02:04;;;;;;;1.45;0.13;;;3.60;99.90;;;;;;5036361;28;20052;-89
2022/01/12 00:04:30;;;;;;;0.13;0.13;;;3.60;99.90;;;;;;5052512;28;20481;-89
2022/01/12 00:06:56;;;;;;;0.40;0.40;;;3.70;99.90;;;;;;5036940;28;20056;-89
2022/01/12 00:09:22;;;;;;;0.00;0.00;;;3.70;99.90;;;;;;5036237;28;20465;-89
2022/01/12 00:11:48;;;;;;;0.20;0.10;;;3.60;99.90;;;;;;5036472;28;20043;-89
2022/01/12 00:14:14;;;;;;;4.10;1.15;;;3.70;99.90;;;;;;5052743;28;20088;-89
2022/01/12 00:16:41;;;;;;;0.38;0.25;;;3.60;99.90;;;;;;5036114;28;20052;-89
2022/01/12 00:19:07;;;;;;;0.70;0.30;;;3.70;99.90;;;;;;5035848;28;20385;-89
2022/01/12 00:21:36;;;;;;;0.73;0.30;;;4.20;99.90;;;;;;5036472;28;20044;-90
2022/01/12 00:24:02;;;;;;;1.45;0.77;;;3.60;99.90;;;;;;5052848;28;20063;-90
2022/01/12 00:34:31;;;;;;;0.55;0.55;;;3.70;99.90;;;;;;5053546;28;19924;-93
2022/01/12 00:37:16;;;;;;;1.55;1.13;;;3.60;99.90;;;;;;5052839;28;20484;-94
2022/01/12 00:39:58;;;;;;;0.10;0.10;;;3.70;99.90;;;;;;5036514;28;20053;-93
2022/01/12 00:42:30;;;;;;;0.30;0.30;;;3.60;99.90;;;;;;5037170;28;20053;-93
2022/01/12 00:45:10;;;;;;;0.00;0.00;;;4.70;99.90;;;;;;5037887;28;20080;-93
2022/01/12 00:47:38;;;;;;;0.00;0.00;;;3.70;99.90;;;;;;5036701;28;20049;-93
2022/01/12 00:50:16;;;;;;;0.10;0.00;;;3.70;99.90;;;;;;5036020;28;20041;-93
2022/01/12 00:52:43;;;;;;;0.30;0.25;;;3.70;99.90;;;;;;5036759;28;20056;-92
2022/01/12 00:55:15;;;;;;;0.25;0.10;;;3.70;99.90;;;;;;5036366;28;20037;-93
2022/01/12 00:57:48;;;;;;;0.00;0.00;;;3.60;99.90;;;;;;5037403;28;20049;-93
2022/01/12 01:00:20;;;;;;;0.05;0.00;;;3.70;99.90;;;;;;5041556;28;20049;-93
2022/01/12 01:02:46;;;;;;;0.40;0.03;;;3.70;99.90;;;;;;5040228;28;20045;-93
2022/01/12 01:05:20;;;;;;;0.28;0.10;;;3.70;99.90;;;;;;5040177;28;20047;-93
2022/01/12 01:07:49;;;;;;;0.60;0.30;;;3.70;99.90;;;;;;5040172;28;20092;-93
2022/01/12 01:10:56;;;;;;;0.98;0.47;;;3.70;99.90;;;;;;5039743;28;20041;-93
2022/01/12 01:13:28;;;;;;;0.00;0.00;;;3.70;99.90;;;;;;5055147;28;20057;-94
2022/01/12 01:26:48;;;;;;;0.08;0.08;;;3.70;99.90;;;;;;5056499;28;20048;-91
2022/01/12 01:29:14;;;;;;;3.20;0.28;;;3.90;99.90;;;;;;5039890;28;20081;-91
2022/01/12 01:31:43;;;;;;;1.17;0.63;;;3.80;99.90;;;;;;5039729;28;20048;-91
2022/01/12 01:34:13;;;;;;;0.20;0.20;;;4.20;99.90;;;;;;5056527;28;20095;-91
2022/01/12 01:36:51;;;;;;;0.50;0.50;;;3.70;99.90;;;;;;5039610;28;20046;-92
2022/01/12 01:39:23;;;;;;;0.00;0.00;;;3.70;99.90;;;;;;5056883;28;20449;-91
2022/01/12 01:42:04;;;;;;;0.15;0.15;;;3.70;99.90;;;;;;5039211;28;20500;-91
2022/01/12 01:55:19;;;;;;;0.47;0.47;;;3.80;99.90;;;;;;5056374;28;20396;-90
2022/01/12 01:57:45;;;;;;;0.10;0.10;;;3.70;99.90;;;;;;5038665;28;20049;-90
2022/01/12 02:00:17;;;;;;;0.15;0.10;;;3.70;99.90;;;;;;5038632;28;20431;-91
2022/01/12 02:02:46;;;;;;;0.15;0.15;;;3.70;99.90;;;;;;5039100;28;20084;-90
2022/01/12 02:05:12;;;;;;;0.10;0.10;;;3.70;99.90;;;;;;5055363;28;20056;-90
2022/01/12 02:07:38;;;;;;;0.88;0.20;;;3.70;99.90;;;;;;5039033;28;20051;-90
2022/01/12 02:10:05;;;;;;;0.15;0.15;;;4.00;99.90;;;;;;5037757;28;20059;-90
2022/01/12 02:12:31;;;;;;;0.00;0.00;;;3.80;99.90;;;;;;5038890;28;20049;-90
2022/01/12 02:14:58;;;;;;;1.77;0.35;;;4.80;99.90;;;;;;5038291;28;20451;-90
2022/01/12 02:17:30;;;;;;;0.30;0.30;;;3.80;99.90;;;;;;5038731;28;20095;-90
2022/01/12 02:36:23;;;;;;;0.00;0.00;;;3.80;99.90;;;;;;5055264;28;20056;-91
2022/01/12 02:41:33;;;;;;;0.00;0.00;;;3.80;99.90;;;;;;5055442;28;20044;-90
2022/01/12 02:54:51;;;;;;;0.85;0.05;;;4.20;99.90;;;;;;5017200;28;20087;-91
2022/01/12 02:57:17;;;;;;;0.00;0.00;;;3.80;99.90;;;;;;5000494;28;20573;-90
2022/01/12 03:02:51;;;;;;;0.17;0.10;;;4.20;99.90;;;;;;4939653;29;20047;-90
2022/01/12 03:05:35;;;;;;;0.00;0.00;;;3.90;99.90;;;;;;4939626;28;20121;-90
2022/01/12 03:08:10;;;;;;;0.40;0.40;;;3.90;99.90;;;;;;4939771;28;20067;-90
2022/01/12 03:10:35;;;;;;;;;;;3.90;99.90;;;;;;4940337;29;20051;-91
2022/01/12 03:13:01;;;;;;;0.30;0.30;;;4.60;99.90;;;;;;4939280;28;19922;-91
2022/01/12 03:15:27;;;;;;;0.17;0.17;;;4.10;99.90;;;;;;4939449;29;20570;-91
2022/01/12 03:17:52;;;;;;;0.00;0.00;;;3.90;99.90;;;;;;4939212;29;20047;-91
2022/01/12 03:20:18;;;;;;;0.00;0.00;;;4.00;99.90;;;;;;4939010;28;20062;-91
2022/01/12 03:22:44;;;;;;;0.00;0.00;;;4.00;99.90;;;;;;4939252;29;20051;-91
2022/01/12 03:25:10;;;;;;;0.00;0.00;;;4.10;99.90;;;;;;4939049;29;20047;-91
2022/01/12 03:27:37;;;;;;;0.05;0.05;;;3.90;99.90;;;;;;4939227;29;20059;-91
2022/01/12 03:30:05;;;;;;;0.15;0.15;;;3.90;99.90;;;;;;4969106;28;20054;-90
2022/01/12 03:32:43;;;;;;;0.13;0.10;;;3.90;99.90;;;;;;4982188;28;20081;-91
2022/01/12 03:35:22;;;;;;;0.45;0.38;;;4.10;99.90;;;;;;5037654;28;20049;-91
2022/01/12 03:40:32;;;;;;;0.10;0.10;;;4.00;99.90;;;;;;5054103;28;20052;-91
2022/01/12 03:42:58;;;;;;;0.40;0.20;;;4.10;99.90;;;;;;5053834;28;20041;-90
2022/01/12 03:45:23;;;;;;;0.32;0.25;;;4.10;99.90;;;;;;5053466;28;20076;-91
2022/01/12 03:47:49;;;;;;;0.55;0.28;;;4.50;99.90;;;;;;5037076;28;20045;-91
2022/01/12 03:50:15;;;;;;;3.30;0.45;;;4.00;99.90;;;;;;5053591;28;20048;-91
2022/01/12 03:52:41;;;;;;;0.00;0.00;;;4.20;99.90;;;;;;5053614;28;20051;-91
2022/01/12 03:55:07;;;;;;;0.00;0.00;;;4.20;99.90;;;;;;5037275;28;20053;-91
2022/01/12 03:57:32;;;;;;;0.00;0.00;;;4.00;99.90;;;;;;5052973;28;20485;-91
2022/01/12 03:59:58;;;;;;;0.30;0.30;;;3.90;99.90;;;;;;5036637;28;20144;-90
2022/01/12 04:02:25;;;;;;;0.00;0.00;;;4.00;99.90;;;;;;5037623;28;20049;-91
2022/01/12 04:05:12;;;;;;;0.47;0.47;;;4.10;99.90;;;;;;5054144;28;20056;-91
2022/01/12 04:10:21;;;;;;;0.13;0.13;;;4.50;99.90;;;;;;5053406;28;20057;-91
2022/01/12 04:12:47;;;;;;;0.08;0.08;;;4.00;99.90;;;;;;5053860;28;20547;-91
2022/01/12 04:15:13;;;;;;;0.10;0.10;;;4.00;99.90;;;;;;5053611;28;20052;-91
2022/01/12 04:17:39;;;;;;;0.10;0.10;;;4.10;99.90;;;;;;5036586;28;20052;-91
2022/01/12 04:20:05;;;;;;;4.68;0.10;;;4.10;99.90;;;;;;5052945;28;20485;-91
2022/01/12 04:25:15;;;;;;;0.50;0.50;;;4.10;99.90;;;;;;5053226;28;20045;-91
2022/01/12 04:27:41;;;;;;;0.63;0.63;;;4.10;99.90;;;;;;5035954;28;20106;-91
2022/01/12 04:30:07;;;;;;;1.38;1.15;;;4.30;99.90;;;;;;5036146;28;20045;-91
2022/01/12 04:32:37;;;;;;;1.23;0.95;;;4.20;99.90;;;;;;5036292;28;20049;-91
2022/01/12 04:35:03;;;;;;;0.38;0.30;;;4.10;99.90;;;;;;5036622;28;20547;-91
2022/01/12 04:37:29;;;;;;;0.15;0.15;;;4.10;99.90;;;;;;5052748;28;20045;-92
2022/01/12 04:39:55;;;;;;;1.65;0.38;;;4.40;99.90;;;;;;5036477;28;20041;-91
2022/01/12 04:42:20;;;;;;;0.40;0.40;;;4.10;99.90;;;;;;5036178;28;20130;-92
2022/01/12 04:44:48;;;;;;;0.43;0.30;;;4.20;99.90;;;;;;5036896;28;20040;-91
2022/01/12 04:47:39;;;;;;;1.60;0.90;;;4.10;99.90;;;;;;5036782;28;20053;-92
2022/01/12 04:50:02;;;;;;;0.52;0.17;;;4.20;99.90;;;;;;5053189;28;20051;-92
2022/01/12 04:52:28;;;;;;;0.65;0.43;;;4.10;99.90;;;;;;5036351;28;20045;-91
2022/01/12 04:54:55;;;;;;;0.40;0.35;;;4.10;99.90;;;;;;5037318;28;20111;-92
2022/01/12 04:57:20;;;;;;;6.03;0.43;;;4.20;99.90;;;;;;5035825;28;20508;-92
2022/01/12 05:00:03;;;;;;;0.60;0.20;;;4.20;99.90;;;;;;5052972;28;20084;-91
2022/01/12 05:08:11;;;;;;;0.50;0.32;;;4.20;99.90;;;;;;5053070;28;20155;-92
2022/01/12 05:13:23;;;;;;;2.22;0.90;;;4.10;99.90;;;;;;5053326;28;20053;-91
2022/01/12 05:15:49;;;;;;;0.45;0.45;;;4.40;99.90;;;;;;5053375;28;20402;-91
2022/01/12 05:18:15;;;;;;;3.42;0.52;;;4.30;99.90;;;;;;5036360;28;20507;-91
2022/01/12 05:20:41;;;;;;;0.80;0.17;;;4.20;99.90;;;;;;5036304;28;20133;-91
2022/01/12 05:23:07;;;;;;;0.30;0.30;;;4.20;99.90;;;;;;5052755;28;20079;-92
2022/01/12 05:25:32;;;;;;;0.55;0.10;;;4.20;99.90;;;;;;5035877;28;20056;-91
2022/01/12 05:27:58;;;;;;;0.15;0.00;;;4.30;99.90;;;;;;5036506;28;20048;-92
2022/01/12 05:30:24;;;;;;;0.88;0.55;;;4.20;99.90;;;;;;5036084;28;20377;-92
2022/01/12 05:32:50;;;;;;;0.38;0.25;;;4.10;99.90;;;;;;5036031;28;20049;-89
2022/01/12 05:35:17;;;;;;;1.95;0.17;;;4.00;99.90;;;;;;5051959;28;20041;-89
2022/01/12 05:37:44;;;;;;;1.30;0.30;;;4.10;99.90;;;;;;5035339;28;20135;-91
2022/01/12 05:40:11;;;;;;;0.45;0.08;;;4.10;99.90;;;;;;5035996;28;20045;-91
2022/01/12 05:42:37;;;;;;;2.72;0.43;;;4.10;99.90;;;;;;5035773;28;20044;-91
2022/01/12 05:45:05;;;;;;;7.60;1.38;;;4.10;99.90;;;;;;5037751;28;20049;-91
2022/01/12 05:50:02;;;;;;;0.00;0.00;;;4.00;99.90;;;;;;5056220;28;20140;-91
2022/01/12 05:52:28;;;;;;;0.75;0.20;;;4.10;99.90;;;;;;5039188;28;20135;-91
2022/01/12 05:54:54;;;;;;;2.70;1.00;;;4.00;99.90;;;;;;5039650;28;20080;-92
2022/01/12 05:57:20;;;;;;;0.13;0.10;;;4.80;99.90;;;;;;5038987;28;20060;-91
2022/01/12 05:59:45;;;;;;;0.00;0.00;;;4.20;99.90;;;;;;5039112;28;20037;-91
2022/01/12 06:02:11;;;;;;;0.10;0.10;;;4.00;99.90;;;;;;5039433;28;20492;-92
2022/01/12 06:04:37;;;;;;;4.75;0.15;;;4.00;99.90;;;;;;5039396;28;20049;-91
2022/01/12 06:07:05;;;;;;;0.45;0.45;;;4.00;99.90;;;;;;5038743;28;20137;-91
2022/01/12 06:09:31;;;;;;;0.32;0.22;;;4.00;99.90;;;;;;5038979;28;20049;-89
2022/01/12 06:11:56;;;;;;;0.28;0.28;;;4.00;99.90;;;;;;5038442;28;20044;-91
2022/01/12 06:14:22;;;;;;;1.85;0.10;;;4.00;99.90;;;;;;5039021;28;20052;-92
2022/01/12 06:16:48;;;;;;;0.10;0.10;;;4.00;99.90;;;;;;5055715;28;20036;-91
2022/01/12 06:19:15;;;;;;;0.00;0.00;;;4.00;99.90;;;;;;5055382;28;20072;-91
2022/01/12 06:21:42;;;;;;;0.43;0.32;;;3.50;99.90;;;;;;5039454;28;20049;-91
2022/01/12 06:24:08;;;;;;;0.00;0.00;;;4.00;99.90;;;;;;5039008;28;20060;-92
2022/01/12 06:26:36;;;;;;;0.10;0.10;;;4.00;99.90;;;;;;5038373;28;20400;-92
2022/01/12 06:31:39;;;;;;;0.22;0.22;;;4.00;99.90;;;;;;5055361;28;20085;-92
2022/01/12 06:34:05;;;;;;;0.65;0.65;;;4.00;99.90;;;;;;5038635;28;20550;-91
2022/01/12 06:36:31;;;;;;;0.30;0.30;;;4.00;99.90;;;;;;5038332;28;20049;-92
2022/01/12 06:38:56;;;;;;;0.00;0.00;;;4.90;99.90;;;;;;5038728;28;20099;-92
2022/01/12 06:41:23;;;;;;;0.50;0.50;;;4.00;99.90;;;;;;5038722;28;20108;-92
2022/01/12 06:43:49;;;;;;;0.00;0.00;;;4.00;99.90;;;;;;5055149;28;20045;-91
2022/01/12 06:46:17;;;;;;;0.00;0.00;;;4.00;99.90;;;;;;5038318;28;20043;-91
2022/01/12 06:48:46;;;;;;;0.22;0.22;;;4.10;99.90;;;;;;5055117;28;20060;-92
2022/01/12 06:51:11;;;;;;;0.00;0.00;;;4.00;99.90;;;;;;5038836;28;20045;-92
2022/01/12 06:53:37;;;;;;;0.30;0.25;;;4.10;99.90;;;;;;5038543;28;20064;-91
2022/01/12 06:56:04;;;;;;;0.00;0.00;;;4.10;99.90;;;;;;5054292;28;20044;-91
2022/01/12 06:58:30;;;;;;;2.20;0.30;;;4.10;99.90;;;;;;5038254;28;20076;-92
2022/01/12 07:00:55;;;;;;;0.30;0.30;;;4.10;99.90;;;;;;5038355;28;20045;-92
2022/01/12 07:03:21;;;;;;;0.20;0.20;;;4.10;99.90;;;;;;5038065;28;20045;-91
2022/01/12 07:05:47;;;;;;;3.72;0.52;;;4.10;99.90;;;;;;5038496;28;20059;-91
2022/01/12 07:08:14;;;;;;;0.93;0.20;;;4.10;99.90;;;;;;5038166;28;20136;-92
2022/01/12 07:10:39;;;;;;;0.45;0.45;;;4.20;99.90;;;;;;5038686;28;20127;-92
2022/01/12 07:13:05;;;;;;;1.48;0.55;;;4.10;99.90;;;;;;5037693;28;20080;-92
2022/01/12 07:15:31;;;;;;;0.85;0.50;;;4.20;99.90;;;;;;5037920;28;20094;-92
2022/01/12 07:18:02;;;;;;;0.20;0.10;;;4.10;99.90;;;;;;5037844;28;20041;-92
2022/01/12 07:20:28;;;;;;;0.00;0.00;;;4.10;99.90;;;;;;5054516;28;20053;-92
2022/01/12 07:22:54;;;;;;;3.75;0.82;;;4.10;99.90;;;;;;5037927;28;20041;-92
2022/01/12 07:25:20;;;;;;;0.82;0.82;;;4.20;99.90;;;;;;5054268;28;20045;-92
2022/01/12 07:27:45;;;;;;;0.38;0.30;;;4.10;99.90;;;;;;5037888;28;20094;-92
2022/01/12 07:30:11;;;;;;;0.43;0.10;;;4.00;99.90;;;;;;5037606;28;20048;-92
2022/01/12 07:32:37;;;;;;;0.00;0.00;;;4.10;99.90;;;;;;5037159;28;20045;-92
2022/01/12 07:35:05;;;;;;;0.43;0.40;;;4.30;99.90;;;;;;5037950;28;20053;-92
2022/01/12 07:37:34;;;;;;;0.15;0.10;;;4.00;99.90;;;;;;5054089;28;20049;-92
2022/01/12 07:39:59;;;;;;;0.25;0.25;;;4.30;99.90;;;;;;5054187;28;20044;-92
2022/01/12 07:42:25;;;;;;;0.00;0.00;;;4.00;99.90;;;;;;5037645;28;20051;-92
2022/01/12 07:44:59;;;;;;;0.75;0.75;;;3.80;99.90;;;;;;5037312;28;20477;-92
2022/01/12 07:47:30;;;;;;;0.28;0.28;;;4.00;99.90;;;;;;5037403;28;20059;-92
2022/01/12 07:49:58;;;;;;;0.10;0.10;;;4.00;99.90;;;;;;5054410;28;20077;-92
2022/01/12 07:52:25;;;;;;;1.08;0.75;;;4.00;99.90;;;;;;5037017;28;20480;-92
2022/01/12 07:54:50;;;;;;;0.25;0.10;;;4.00;99.90;;;;;;5037046;28;20040;-92
2022/01/12 07:57:17;;;;;;;0.05;0.00;;;4.10;99.90;;;;;;5036475;28;20056;-92
2022/01/12 07:59:43;;;;;;;0.13;0.10;;;4.00;99.90;;;;;;5054129;28;20128;-92
2022/01/12 08:02:09;;;;;;;0.38;0.30;;;4.10;99.90;;;;;;5037571;28;20041;-92
2022/01/12 08:04:35;;;;;;;1.17;0.15;;;4.10;99.90;;;;;;5037360;28;20048;-92
2022/01/12 08:07:03;;;;;;;0.00;0.00;;;4.40;99.90;;;;;;5036376;28;20503;-91
2022/01/12 08:09:28;;;;;;;0.40;0.13;;;4.10;99.90;;;;;;5036996;28;20048;-92
2022/01/12 08:11:54;;;;;;;0.38;0.38;;;4.10;99.90;;;;;;5036976;28;20102;-92
2022/01/12 08:14:20;;;;;;;0.28;0.28;;;4.40;99.90;;;;;;5037279;28;20102;-92
2022/01/12 08:16:46;;;;;;;1.23;0.68;;;4.20;99.90;;;;;;5036919;28;20041;-92
2022/01/12 08:19:11;;;;;;;0.00;0.00;;;4.40;99.90;;;;;;5037095;28;20045;-92
2022/01/12 08:21:37;;;;;;;0.05;0.05;;;4.20;99.90;;;;;;5037015;28;20397;-92
2022/01/12 08:24:03;;;;;;;0.17;0.17;;;4.20;99.90;;;;;;5036961;28;20053;-92
2022/01/12 08:26:29;;;;;;;0.05;0.05;;;4.20;99.90;;;;;;5036248;28;20044;-92
2022/01/12 08:28:54;;;;;;;0.20;0.20;;;4.20;99.90;;;;;;5053899;28;20044;-92
2022/01/12 08:31:21;;;;;;;0.68;0.45;;;4.30;99.90;;;;;;5036281;28;20419;-92
2022/01/12 08:33:48;;;;;;;0.10;0.10;;;4.40;99.90;;;;;;5053339;28;20057;-91
2022/01/12 08:36:15;;;;;;;0.00;0.00;;;4.30;99.90;;;;;;5036269;28;20052;-92
2022/01/12 08:38:41;;;;;;;0.20;0.20;;;4.40;99.90;;;;;;5036466;28;20037;-91
2022/01/12 08:41:07;;;;;;;0.10;0.10;;;4.40;99.90;;;;;;5053181;28;20045;-92
2022/01/12 08:43:33;;;;;;;1.35;0.70;;;4.40;99.90;;;;;;5052711;28;20507;-91
2022/01/12 08:45:59;;;;;;;3.17;0.98;;;4.40;99.90;;;;;;5036544;28;20041;-92
2022/01/12 08:48:24;;;;;;;1.65;0.45;;;4.50;99.90;;;;;;5053084;28;20037;-91
2022/01/12 08:50:51;;;;;;;0.52;0.52;;;4.50;99.90;;;;;;5036655;28;20041;-92
2022/01/12 08:53:17;;;;;;;0.63;0.22;;;4.70;99.90;;;;;;5053266;28;20045;-92
2022/01/12 08:55:42;;;;;;;2.78;0.22;;;4.80;99.90;;;;;;5036637;28;20060;-91
2022/01/12 08:58:11;;;;;;;0.00;0.00;;;5.00;99.90;;;;;;5036002;28;20056;-92
2022/01/12 09:00:37;;;;;;;0.25;0.25;;;5.10;99.90;;;;;;5053111;28;20052;-92
2022/01/12 09:03:02;;;;;;;3.10;0.20;;;5.10;99.90;;;;;;5036460;28;20115;-92
2022/01/12 09:05:29;;;;;;;0.05;0.05;;;5.20;99.90;;;;;;5036370;28;20045;-92
2022/01/12 09:07:55;;;;;;;0.00;0.00;;;5.10;99.90;;;;;;5053023;28;20362;-92
2022/01/12 09:10:22;;;;;;;0.20;0.20;;;5.50;99.90;;;;;;5053140;28;20056;-92
2022/01/12 09:12:48;;;;;;;0.88;0.55;;;5.80;99.90;;;;;;5053074;28;20049;-92
2022/01/12 09:15:14;;;;;;;0.40;0.20;;;5.30;99.90;;;;;;5036510;28;20110;-92
2022/01/12 09:17:41;;;;;;;0.40;0.40;;;5.60;99.90;;;;;;5035910;28;20044;-91
2022/01/12 09:20:08;;;;;;;0.10;0.10;;;6.10;99.90;;;;;;5039478;28;20397;-91
2022/01/12 09:22:37;;;;;;;0.40;0.10;;;5.60;99.90;;;;;;5056423;28;20037;-92
2022/01/12 09:25:04;;;;;;;0.75;0.65;;;5.50;99.90;;;;;;5040632;28;20412;-91
2022/01/12 09:27:30;;;;;;;0.13;0.13;;;5.50;99.90;;;;;;5039807;28;20051;-91
2022/01/12 09:29:56;;;;;;;0.00;0.00;;;5.80;99.90;;;;;;5039974;28;20183;-91
2022/01/12 09:32:22;;;;;;;0.20;0.20;;;5.40;99.90;;;;;;5039944;28;20110;-92
2022/01/12 09:34:48;;;;;;;1.45;0.15;;;5.40;99.90;;;;;;5056452;28;20132;-91
2022/01/12 09:37:14;;;;;;;0.22;0.22;;;5.60;99.90;;;;;;5039678;28;20049;-91
2022/01/12 09:39:40;;;;;;;0.20;0.20;;;5.60;99.90;;;;;;5056048;28;20099;-92
2022/01/12 09:42:06;;;;;;;0.40;0.20;;;5.40;99.90;;;;;;5039863;28;20170;-92
2022/01/12 09:44:35;;;;;;;0.10;0.10;;;5.40;99.90;;;;;;5039463;28;20045;-92
2022/01/12 09:47:07;;;;;;;0.00;0.00;;;5.40;99.90;;;;;;5039732;28;20088;-91
2022/01/12 09:49:33;;;;;;;0.75;0.22;;;5.40;99.90;;;;;;5039591;28;20072;-92
2022/01/12 09:51:59;;;;;;;0.32;0.32;;;5.50;99.90;;;;;;5039546;28;20531;-91
2022/01/12 09:54:27;;;;;;;0.00;0.00;;;5.40;99.90;;;;;;5039538;28;20052;-91
2022/01/12 09:56:54;;;;;;;0.00;0.00;;;5.00;99.90;;;;;;5039113;28;20045;-91
2022/01/12 09:59:21;;;;;;;0.30;0.10;;;5.60;99.90;;;;;;5056081;28;20049;-91
2022/01/12 10:01:48;;;;;;;0.55;0.15;;;6.10;99.90;;;;;;5039112;28;20124;-92
2022/01/12 10:04:22;;;;;;;0.00;0.00;;;5.80;99.90;;;;;;5055417;28;20508;-91
2022/01/12 10:06:51;;;;;;;0.63;0.13;;;5.80;99.90;;;;;;5039513;28;20052;-91
2022/01/12 10:09:22;;;;;;;0.30;0.30;;;6.00;99.90;;;;;;5055784;28;20469;-92
2022/01/12 10:12:09;;;;;;;0.57;0.28;;;5.90;99.90;;;;;;5039154;28;20094;-91
2022/01/12 10:14:46;;;;;;;1.27;1.00;;;5.70;99.90;;;;;;5038986;28;20508;-92
2022/01/12 10:17:13;;;;;;;8.10;1.95;;;5.70;99.90;;;;;;5055551;28;20384;-91
2022/01/12 10:19:39;;;;;;;0.00;0.00;;;5.70;99.90;;;;;;5055376;28;20037;-91
2022/01/12 10:22:08;;;;;;;1.00;0.40;;;5.70;99.90;;;;;;5055411;28;20056;-92
2022/01/12 10:24:43;;;;;;;1.75;0.00;;;5.80;99.90;;;;;;5038889;28;20041;-91
2022/01/12 10:27:14;;;;;;;0.00;0.00;;;5.90;99.90;;;;;;5055494;28;20100;-91
2022/01/12 10:29:41;;;;;;;0.00;0.00;;;5.80;99.90;;;;;;5038188;28;20053;-91
2022/01/12 10:32:08;;;;;;;0.00;0.00;;;6.00;99.90;;;;;;5038646;28;20048;-91
2022/01/12 10:34:37;;;;;;;0.00;0.00;;;6.50;99.90;;;;;;5038492;28;20056;-91
2022/01/12 10:37:09;;;;;;;0.00;0.00;;;6.00;99.90;;;;;;5038569;28;20056;-91
2022/01/12 10:39:46;;;;;;;0.20;0.20;;;6.00;99.90;;;;;;5054652;28;20040;-91
2022/01/12 10:42:19;;;;;;;0.25;0.10;;;6.00;99.90;;;;;;5038868;28;20508;-91
2022/01/12 10:44:48;;;;;;;1.98;0.47;;;6.60;99.90;;;;;;5038546;28;20053;-91
2022/01/12 10:47:27;;;;;;;0.17;0.10;;;6.00;99.90;;;;;;5038438;28;20570;-91
2022/01/12 10:49:52;;;;;;;0.00;0.00;;;6.00;99.90;;;;;;5038329;28;20389;-91
2022/01/12 10:52:19;;;;;;;0.20;0.20;;;6.00;99.90;;;;;;5038300;28;20041;-91
2022/01/12 10:54:53;;;;;;;0.38;0.20;;;6.10;99.90;;;;;;5054895;28;20135;-91
2022/01/12 10:57:23;;;;;;;0.00;0.00;;;6.20;99.90;;;;;;5054614;28;20063;-91
2022/01/12 11:00:07;;;;;;;0.38;0.38;;;6.80;99.90;;;;;;5037648;28;20103;-91
2022/01/12 11:02:34;;;;;;;1.98;1.38;;;6.60;99.90;;;;;;5038132;28;20048;-91
2022/01/12 11:05:01;;;;;;;0.00;0.00;;;6.60;99.90;;;;;;5038043;28;20049;-91
2022/01/12 11:07:29;;;;;;;0.08;0.08;;;6.70;99.90;;;;;;5038153;28;20052;-91
2022/01/12 11:09:58;;;;;;;0.00;0.00;;;6.40;99.90;;;;;;5054572;28;20076;-91
2022/01/12 11:12:24;;;;;;;3.10;0.25;;;6.40;99.90;;;;;;5037514;28;20091;-91
2022/01/12 11:14:50;;;;;;;0.00;0.00;;;6.40;99.90;;;;;;5038700;28;20059;-91
2022/01/12 11:17:16;;;;;;;0.03;0.03;;;6.40;99.90;;;;;;5037850;28;20053;-91
2022/01/12 11:20:08;;;;;;;0.10;0.10;;;6.50;99.90;;;;;;5037714;28;20099;-91
2022/01/12 11:22:46;;;;;;;0.00;0.00;;;6.60;99.90;;;;;;5037504;28;20049;-91
2022/01/12 11:25:24;;;;;;;0.85;0.30;;;6.70;99.90;;;;;;5037738;28;20045;-91
2022/01/12 11:28:03;;;;;;;0.52;0.50;;;6.60;99.90;;;;;;5037771;28;20044;-91
2022/01/12 11:30:28;;;;;;;0.00;0.00;;;6.60;99.90;;;;;;5038143;28;20052;-91
2022/01/12 11:32:58;;;;;;;0.50;0.10;;;6.60;99.90;;;;;;5053733;28;20113;-91
2022/01/12 11:35:34;;;;;;;0.10;0.10;;;6.90;99.90;;;;;;5037308;28;20052;-91
2022/01/12 11:38:01;;;;;;;0.10;0.10;;;6.60;99.90;;;;;;5037332;28;20484;-91
2022/01/12 11:40:41;;;;;;;2.40;1.65;;;6.90;99.90;;;;;;5037157;28;20120;-91
2022/01/12 11:43:42;;;;;;;0.77;0.77;;;6.60;99.90;;;;;;5036479;28;20135;-91
2022/01/12 11:46:10;;;;;;;0.38;0.10;;;6.60;99.90;;;;;;5036035;28;20056;-91
2022/01/12 11:48:44;;;;;;;0.00;0.00;;;6.70;99.90;;;;;;5036371;28;20048;-90
2022/01/12 11:51:10;;;;;;;0.80;0.15;;;6.80;99.90;;;;;;5019812;28;20436;-91
2022/01/12 11:53:49;;;;;;;0.08;0.08;;;6.90;99.90;;;;;;5019336;28;20060;-91
2022/01/12 11:56:19;;;;;;;0.95;0.32;;;6.90;99.90;;;;;;5019557;28;20057;-91
2022/01/12 11:58:55;;;;;;;0.00;0.00;;;7.00;99.90;;;;;;5035510;28;20516;-91
2022/01/12 12:01:22;;;;;;;0.10;0.10;;;7.00;99.90;;;;;;5036028;28;20111;-91
2022/01/12 12:04:02;;;;;;;0.05;0.05;;;7.10;99.90;;;;;;5019152;28;20063;-91
2022/01/12 12:06:28;;;;;;;0.00;0.00;;;7.10;99.90;;;;;;5019334;28;20427;-91
2022/01/12 12:09:00;;;;;;;0.00;0.00;;;7.30;99.90;;;;;;5019168;28;20116;-91
2022/01/12 12:11:30;;;;;;;0.00;0.00;;;7.30;99.90;;;;;;5035939;28;20045;-91
2022/01/12 12:14:00;;;;;;;0.10;0.00;;;7.20;99.90;;;;;;5019167;28;20045;-91
2022/01/12 12:16:27;;;;;;;2.65;0.15;;;7.20;99.90;;;;;;5035864;28;20053;-91
2022/01/12 12:18:55;;;;;;;0.00;0.00;;;7.00;99.90;;;;;;5019495;28;20052;-91
2022/01/12 12:21:21;;;;;;;0.00;0.00;;;7.30;99.90;;;;;;5035965;28;20136;-91
2022/01/12 12:23:47;;;;;;;0.30;0.10;;;7.50;99.90;;;;;;5053310;28;20084;-91
2022/01/12 12:26:15;;;;;;;0.10;0.10;;;7.60;99.90;;;;;;5036448;28;20045;-91
2022/01/12 12:28:47;;;;;;;0.00;0.00;;;7.20;99.90;;;;;;5036294;28;20134;-91
2022/01/12 12:31:21;;;;;;;0.40;0.30;;;7.10;99.90;;;;;;5036717;28;20045;-91
2022/01/12 12:33:47;;;;;;;0.00;0.00;;;7.10;99.90;;;;;;5036687;28;20048;-91
2022/01/12 12:36:14;;;;;;;0.30;0.30;;;7.00;99.90;;;;;;5036968;28;20057;-91
2022/01/12 12:38:40;;;;;;;0.00;0.00;;;7.10;99.90;;;;;;5036467;28;20068;-91
2022/01/12 12:41:05;;;;;;;4.78;1.40;;;7.20;99.90;;;;;;5053095;28;20052;-91
2022/01/12 12:43:35;;;;;;;14.88;1.92;;;6.40;99.90;;;;;;5053010;28;20056;-91
2022/01/12 12:46:11;;;;;;;0.38;0.00;;;6.90;99.90;;;;;;5036661;28;20041;-91
2022/01/12 12:48:39;;;;;;;1.13;0.57;;;7.00;99.90;;;;;;5036448;28;20041;-91
2022/01/12 12:51:13;;;;;;;0.80;0.52;;;7.10;99.90;;;;;;5036356;28;20477;-91
2022/01/12 12:53:41;;;;;;;0.20;0.20;;;7.10;99.90;;;;;;5037676;28;20045;-90
2022/01/12 12:56:11;;;;;;;0.00;0.00;;;7.10;99.90;;;;;;5040427;28;20045;-91
2022/01/12 12:58:38;;;;;;;0.43;0.43;;;7.10;99.90;;;;;;5056782;28;20060;-91
2022/01/12 13:01:11;;;;;;;0.05;0.05;;;7.10;99.90;;;;;;5057032;28;20080;-91
2022/01/12 13:03:39;;;;;;;1.10;0.90;;;7.10;99.90;;;;;;5040275;28;20053;-91
2022/01/12 13:06:05;;;;;;;0.28;0.28;;;7.00;99.90;;;;;;5040170;28;20048;-91
2022/01/12 13:08:31;;;;;;;0.00;0.00;;;7.30;99.90;;;;;;5056994;28;20552;-91
2022/01/12 13:11:06;;;;;;;0.00;0.00;;;7.10;99.90;;;;;;5040792;28;20084;-91
2022/01/12 13:13:32;;;;;;;;;;;7.00;99.90;;;;;;5040898;28;20087;-91
2022/01/12 13:15:58;;;;;;;0.43;0.20;;;7.10;99.90;;;;;;5039848;28;19964;-91
2022/01/12 13:18:24;;;;;;;0.00;0.00;;;7.30;99.90;;;;;;5056313;28;20392;-91
2022/01/12 13:21:12;;;;;;;0.75;0.10;;;7.40;99.90;;;;;;5040076;28;20051;-91
2022/01/12 13:23:51;;;;;;;0.00;0.00;;;7.40;99.90;;;;;;5040080;28;20139;-91
2022/01/12 13:26:23;;;;;;;0.00;0.00;;;7.50;99.90;;;;;;5039905;28;20044;-91
2022/01/12 13:28:50;;;;;;;0.00;0.00;;;7.60;99.90;;;;;;5040596;28;20134;-91
2022/01/12 13:31:18;;;;;;;0.00;0.00;;;7.60;99.90;;;;;;5040021;28;20064;-91
2022/01/12 13:33:48;;;;;;;0.15;0.08;;;7.60;99.90;;;;;;5056027;28;20049;-91
2022/01/12 13:36:19;;;;;;;0.47;0.00;;;7.60;99.90;;;;;;5056400;28;20404;-91
2022/01/12 13:39:01;;;;;;;0.13;0.13;;;7.40;99.90;;;;;;5039627;28;20045;-91
2022/01/12 13:41:33;;;;;;;0.43;0.43;;;7.40;99.90;;;;;;5039486;28;20045;-91
2022/01/12 13:44:05;;;;;;;0.30;0.30;;;7.50;99.90;;;;;;5056411;28;20045;-91
2022/01/12 13:46:36;;;;;;;0.00;0.00;;;7.30;99.90;;;;;;5056273;28;20048;-91
2022/01/12 13:49:21;;;;;;;0.00;0.00;;;7.20;99.90;;;;;;5039414;28;20106;-91
2022/01/12 13:52:15;;;;;;;0.05;0.00;;;7.10;99.90;;;;;;5039525;28;20496;-91
2022/01/12 13:54:43;;;;;;;0.00;0.00;;;7.20;99.90;;;;;;5039047;28;20164;-91
2022/01/12 13:57:11;;;;;;;0.25;0.25;;;7.10;99.90;;;;;;5038914;28;20045;-91
2022/01/12 13:59:48;;;;;;;1.08;0.45;;;7.00;99.90;;;;;;5055251;28;20147;-91
2022/01/12 14:02:16;;;;;;;0.00;0.00;;;7.00;99.90;;;;;;5039373;28;20041;-91
2022/01/12 14:04:47;;;;;;;25.08;2.20;;;7.30;99.90;;;;;;5055022;28;20076;-91
2022/01/12 14:07:23;;;;;;;0.00;0.00;;;6.90;99.90;;;;;;5055893;28;20052;-91
2022/01/12 14:09:57;;;;;;;0.10;0.10;;;7.10;99.90;;;;;;5038833;28;20055;-91
2022/01/12 14:12:26;;;;;;;0.53;0.30;;;7.20;99.90;;;;;;5056163;28;20052;-91
2022/01/12 14:14:55;;;;;;;2.38;0.90;;;8.10;99.90;;;;;;5039598;28;20627;-91
2022/01/12 14:17:32;;;;;;;0.08;0.08;;;6.70;99.90;;;;;;5038786;28;20048;-91
2022/01/12 14:20:20;;;;;;;0.00;0.00;;;6.70;99.90;;;;;;5038692;28;20095;-91
2022/01/12 14:22:52;;;;;;;0.75;0.75;;;6.70;99.90;;;;;;5038832;28;20554;-91
2022/01/12 14:25:21;;;;;;;0.00;0.00;;;6.60;99.90;;;;;;5039154;28;20048;-90
2022/01/12 14:27:54;;;;;;;0.00;0.00;;;6.60;99.90;;;;;;5038773;28;20053;-91
2022/01/12 14:30:21;;;;;;;0.00;0.00;;;6.60;99.90;;;;;;5055695;28;20055;-91
2022/01/12 14:32:48;;;;;;;0.00;0.00;;;6.60;99.90;;;;;;5038871;28;20098;-92